sensor_id;sensor_type;location;lat;lon;timestamp;P1;durP1;ratioP1;P2;durP2;ratioP2
21554;SDS011;10938;44.794;-0.676;2023-06-26T00:01:12;0.75;;;0.60;;
21554;SDS011;10938;44.794;-0.676;2023-06-26T00:03:37;0.53;;;0.53;;
21554;SDS011;10938;44.794;-0.676;2023-06-26T00:06:02;1.27;;;0.87;;
21554;SDS011;10938;44.794;-0.676;2023-06-26T00:08:28;1.00;;;0.70;;
21554;SDS011;10938;44.794;-0.676;2023-06-26T00:10:53;1.02;;;0.90;;
21554;SDS011;10938;44.794;-0.676;2023-06-26T00:13:19;1.65;;;0.80;;
21554;SDS011;10938;44.794;-0.676;2023-06-26T00:15:44;0.82;;;0.70;;
21554;SDS011;10938;44.794;-0.676;2023-06-26T00:18:09;0.50;;;0.50;;
21554;SDS011;10938;44.794;-0.676;2023-06-26T00:20:35;1.48;;;0.80;;
21554;SDS011;10938;44.794;-0.676;2023-06-26T00:23:00;0.45;;;0.43;;
21554;SDS011;10938;44.794;-0.676;2023-06-26T00:25:26;0.70;;;0.70;;
21554;SDS011;10938;44.794;-0.676;2023-06-26T00:27:51;0.97;;;0.93;;
21554;SDS011;10938;44.794;-0.676;2023-06-26T00:30:19;0.43;;;0.43;;
21554;SDS011;10938;44.794;-0.676;2023-06-26T00:32:45;0.60;;;0.60;;
21554;SDS011;10938;44.794;-0.676;2023-06-26T00:35:10;0.40;;;0.40;;
21554;SDS011;10938;44.794;-0.676;2023-06-26T00:37:35;0.68;;;0.65;;
21554;SDS011;10938;44.794;-0.676;2023-06-26T00:40:01;0.60;;;0.60;;
21554;SDS011;10938;44.794;-0.676;2023-06-26T00:42:26;0.60;;;0.60;;
21554;SDS011;10938;44.794;-0.676;2023-06-26T00:44:51;1.07;;;1.00;;
21554;SDS011;10938;44.794;-0.676;2023-06-26T00:47:17;2.15;;;0.52;;
21554;SDS011;10938;44.794;-0.676;2023-06-26T00:49:43;0.73;;;0.63;;
21554;SDS011;10938;44.794;-0.676;2023-06-26T00:52:08;0.50;;;0.50;;
21554;SDS011;10938;44.794;-0.676;2023-06-26T00:54:34;0.67;;;0.60;;
21554;SDS011;10938;44.794;-0.676;2023-06-26T00:56:59;0.43;;;0.43;;
21554;SDS011;10938;44.794;-0.676;2023-06-26T00:59:25;0.60;;;0.60;;
21554;SDS011;10938;44.794;-0.676;2023-06-26T01:01:50;1.13;;;1.03;;
21554;SDS011;10938;44.794;-0.676;2023-06-26T01:04:15;0.90;;;0.73;;
21554;SDS011;10938;44.794;-0.676;2023-06-26T01:06:44;0.75;;;0.75;;
21554;SDS011;10938;44.794;-0.676;2023-06-26T01:09:14;1.13;;;0.93;;
21554;SDS011;10938;44.794;-0.676;2023-06-26T01:11:39;0.70;;;0.70;;
21554;SDS011;10938;44.794;-0.676;2023-06-26T01:14:04;0.60;;;0.60;;
21554;SDS011;10938;44.794;-0.676;2023-06-26T01:16:30;0.80;;;0.80;;
21554;SDS011;10938;44.794;-0.676;2023-06-26T01:18:55;0.38;;;0.38;;
21554;SDS011;10938;44.794;-0.676;2023-06-26T01:21:22;0.95;;;0.68;;
21554;SDS011;10938;44.794;-0.676;2023-06-26T01:26:22;2.10;;;0.90;;
21554;SDS011;10938;44.794;-0.676;2023-06-26T01:28:49;0.90;;;0.90;;
21554;SDS011;10938;44.794;-0.676;2023-06-26T01:31:15;1.40;;;0.85;;
21554;SDS011;10938;44.794;-0.676;2023-06-26T01:33:41;0.63;;;0.63;;
21554;SDS011;10938;44.794;-0.676;2023-06-26T01:36:07;1.20;;;0.60;;
21554;SDS011;10938;44.794;-0.676;2023-06-26T01:38:32;0.77;;;0.77;;
21554;SDS011;10938;44.794;-0.676;2023-06-26T01:40:58;0.70;;;0.70;;
21554;SDS011;10938;44.794;-0.676;2023-06-26T01:43:25;1.10;;;1.00;;
21554;SDS011;10938;44.794;-0.676;2023-06-26T01:45:54;0.77;;;0.77;;
21554;SDS011;10938;44.794;-0.676;2023-06-26T01:48:30;0.73;;;0.70;;
21554;SDS011;10938;44.794;-0.676;2023-06-26T01:50:57;0.88;;;0.80;;
21554;SDS011;10938;44.794;-0.676;2023-06-26T01:53:24;0.80;;;0.65;;
21554;SDS011;10938;44.794;-0.676;2023-06-26T01:55:51;1.35;;;1.15;;
21554;SDS011;10938;44.794;-0.676;2023-06-26T01:58:18;0.75;;;0.65;;
21554;SDS011;10938;44.794;-0.676;2023-06-26T02:00:45;0.73;;;0.73;;
21554;SDS011;10938;44.794;-0.676;2023-06-26T02:03:11;0.50;;;0.50;;
21554;SDS011;10938;44.794;-0.676;2023-06-26T02:05:36;1.13;;;0.60;;
21554;SDS011;10938;44.794;-0.676;2023-06-26T02:08:01;1.57;;;0.70;;
21554;SDS011;10938;44.794;-0.676;2023-06-26T02:10:28;1.33;;;0.95;;
21554;SDS011;10938;44.794;-0.676;2023-06-26T02:12:53;0.60;;;0.60;;
21554;SDS011;10938;44.794;-0.676;2023-06-26T02:15:18;3.40;;;0.90;;
21554;SDS011;10938;44.794;-0.676;2023-06-26T02:17:43;1.00;;;0.80;;
21554;SDS011;10938;44.794;-0.676;2023-06-26T02:20:14;0.82;;;0.82;;
21554;SDS011;10938;44.794;-0.676;2023-06-26T02:22:40;0.90;;;0.75;;
21554;SDS011;10938;44.794;-0.676;2023-06-26T02:25:05;0.70;;;0.70;;
21554;SDS011;10938;44.794;-0.676;2023-06-26T02:27:31;0.93;;;0.80;;
21554;SDS011;10938;44.794;-0.676;2023-06-26T02:29:56;0.63;;;0.63;;
21554;SDS011;10938;44.794;-0.676;2023-06-26T02:32:21;0.90;;;0.90;;
21554;SDS011;10938;44.794;-0.676;2023-06-26T02:34:47;0.80;;;0.80;;
21554;SDS011;10938;44.794;-0.676;2023-06-26T02:37:12;0.63;;;0.63;;
21554;SDS011;10938;44.794;-0.676;2023-06-26T02:39:38;1.20;;;1.10;;
21554;SDS011;10938;44.794;-0.676;2023-06-26T02:42:03;1.07;;;0.80;;
21554;SDS011;10938;44.794;-0.676;2023-06-26T02:44:28;0.50;;;0.50;;
21554;SDS011;10938;44.794;-0.676;2023-06-26T02:46:54;1.37;;;0.97;;
21554;SDS011;10938;44.794;-0.676;2023-06-26T02:49:19;1.10;;;0.70;;
21554;SDS011;10938;44.794;-0.676;2023-06-26T02:51:44;0.80;;;0.80;;
21554;SDS011;10938;44.794;-0.676;2023-06-26T02:54:10;0.60;;;0.60;;
21554;SDS011;10938;44.794;-0.676;2023-06-26T02:56:35;1.13;;;1.03;;
21554;SDS011;10938;44.794;-0.676;2023-06-26T02:59:00;1.30;;;1.13;;
21554;SDS011;10938;44.794;-0.676;2023-06-26T03:01:26;0.60;;;0.60;;
21554;SDS011;10938;44.794;-0.676;2023-06-26T03:03:51;0.88;;;0.88;;
21554;SDS011;10938;44.794;-0.676;2023-06-26T03:06:16;6.83;;;1.13;;
21554;SDS011;10938;44.794;-0.676;2023-06-26T03:08:42;1.05;;;0.95;;
21554;SDS011;10938;44.794;-0.676;2023-06-26T03:11:07;1.17;;;0.80;;
21554;SDS011;10938;44.794;-0.676;2023-06-26T03:13:34;1.20;;;0.90;;
21554;SDS011;10938;44.794;-0.676;2023-06-26T03:15:59;1.48;;;0.90;;
21554;SDS011;10938;44.794;-0.676;2023-06-26T03:18:24;0.85;;;0.80;;
21554;SDS011;10938;44.794;-0.676;2023-06-26T03:20:50;1.52;;;0.85;;
21554;SDS011;10938;44.794;-0.676;2023-06-26T03:23:16;0.63;;;0.52;;
21554;SDS011;10938;44.794;-0.676;2023-06-26T03:25:41;1.40;;;1.05;;
21554;SDS011;10938;44.794;-0.676;2023-06-26T03:28:06;1.17;;;1.08;;
21554;SDS011;10938;44.794;-0.676;2023-06-26T03:30:32;0.80;;;0.80;;
21554;SDS011;10938;44.794;-0.676;2023-06-26T03:32:57;0.77;;;0.77;;
21554;SDS011;10938;44.794;-0.676;2023-06-26T03:35:22;0.93;;;0.93;;
21554;SDS011;10938;44.794;-0.676;2023-06-26T03:37:48;0.70;;;0.70;;
21554;SDS011;10938;44.794;-0.676;2023-06-26T03:40:14;1.45;;;1.00;;
21554;SDS011;10938;44.794;-0.676;2023-06-26T03:42:39;1.02;;;0.93;;
21554;SDS011;10938;44.794;-0.676;2023-06-26T03:45:05;0.80;;;0.80;;
21554;SDS011;10938;44.794;-0.676;2023-06-26T03:47:31;1.23;;;0.80;;
21554;SDS011;10938;44.794;-0.676;2023-06-26T03:49:56;0.85;;;0.80;;
21554;SDS011;10938;44.794;-0.676;2023-06-26T03:52:22;1.10;;;1.00;;
21554;SDS011;10938;44.794;-0.676;2023-06-26T03:54:47;0.60;;;0.60;;
21554;SDS011;10938;44.794;-0.676;2023-06-26T03:57:13;0.50;;;0.50;;
21554;SDS011;10938;44.794;-0.676;2023-06-26T03:59:39;2.22;;;1.02;;
21554;SDS011;10938;44.794;-0.676;2023-06-26T04:02:04;1.60;;;1.03;;
21554;SDS011;10938;44.794;-0.676;2023-06-26T04:04:29;2.35;;;0.88;;
21554;SDS011;10938;44.794;-0.676;2023-06-26T04:06:55;1.47;;;1.37;;
21554;SDS011;10938;44.794;-0.676;2023-06-26T04:09:20;1.27;;;1.17;;
21554;SDS011;10938;44.794;-0.676;2023-06-26T04:11:45;1.15;;;1.00;;
21554;SDS011;10938;44.794;-0.676;2023-06-26T04:14:11;1.43;;;1.17;;
21554;SDS011;10938;44.794;-0.676;2023-06-26T04:16:36;1.10;;;1.00;;
21554;SDS011;10938;44.794;-0.676;2023-06-26T04:19:02;0.70;;;0.70;;
21554;SDS011;10938;44.794;-0.676;2023-06-26T04:21:29;0.90;;;0.90;;
21554;SDS011;10938;44.794;-0.676;2023-06-26T04:23:54;1.50;;;0.90;;
21554;SDS011;10938;44.794;-0.676;2023-06-26T04:26:19;1.00;;;0.70;;
21554;SDS011;10938;44.794;-0.676;2023-06-26T04:28:46;0.73;;;0.73;;
21554;SDS011;10938;44.794;-0.676;2023-06-26T04:31:11;1.23;;;1.13;;
21554;SDS011;10938;44.794;-0.676;2023-06-26T04:33:37;0.95;;;0.77;;
21554;SDS011;10938;44.794;-0.676;2023-06-26T04:36:05;0.98;;;0.80;;
21554;SDS011;10938;44.794;-0.676;2023-06-26T04:38:34;0.75;;;0.75;;
21554;SDS011;10938;44.794;-0.676;2023-06-26T04:41:00;1.08;;;1.00;;
21554;SDS011;10938;44.794;-0.676;2023-06-26T04:43:25;0.70;;;0.70;;
21554;SDS011;10938;44.794;-0.676;2023-06-26T04:45:51;0.90;;;0.90;;
21554;SDS011;10938;44.794;-0.676;2023-06-26T04:48:16;0.80;;;0.67;;
21554;SDS011;10938;44.794;-0.676;2023-06-26T04:50:41;1.90;;;1.15;;
21554;SDS011;10938;44.794;-0.676;2023-06-26T04:53:07;2.17;;;0.95;;
21554;SDS011;10938;44.794;-0.676;2023-06-26T04:55:32;0.70;;;0.70;;
21554;SDS011;10938;44.794;-0.676;2023-06-26T04:57:57;0.70;;;0.70;;
21554;SDS011;10938;44.794;-0.676;2023-06-26T05:00:23;0.77;;;0.77;;
21554;SDS011;10938;44.794;-0.676;2023-06-26T05:02:49;0.88;;;0.88;;
21554;SDS011;10938;44.794;-0.676;2023-06-26T05:05:24;1.00;;;1.00;;
21554;SDS011;10938;44.794;-0.676;2023-06-26T05:07:49;1.10;;;0.93;;
21554;SDS011;10938;44.794;-0.676;2023-06-26T05:10:14;0.73;;;0.70;;
21554;SDS011;10938;44.794;-0.676;2023-06-26T05:12:40;0.60;;;0.60;;
21554;SDS011;10938;44.794;-0.676;2023-06-26T05:15:05;1.23;;;0.90;;
21554;SDS011;10938;44.794;-0.676;2023-06-26T05:17:31;1.10;;;1.00;;
21554;SDS011;10938;44.794;-0.676;2023-06-26T05:19:56;1.13;;;1.03;;
21554;SDS011;10938;44.794;-0.676;2023-06-26T05:22:22;0.87;;;0.67;;
21554;SDS011;10938;44.794;-0.676;2023-06-26T05:24:47;1.05;;;0.90;;
21554;SDS011;10938;44.794;-0.676;2023-06-26T05:27:13;2.67;;;1.92;;
21554;SDS011;10938;44.794;-0.676;2023-06-26T05:29:46;2.63;;;1.98;;
21554;SDS011;10938;44.794;-0.676;2023-06-26T05:32:12;2.08;;;1.15;;
21554;SDS011;10938;44.794;-0.676;2023-06-26T05:34:38;1.30;;;1.20;;
21554;SDS011;10938;44.794;-0.676;2023-06-26T05:37:05;0.82;;;0.63;;
21554;SDS011;10938;44.794;-0.676;2023-06-26T05:39:30;1.08;;;0.90;;
21554;SDS011;10938;44.794;-0.676;2023-06-26T05:41:55;1.17;;;1.08;;
21554;SDS011;10938;44.794;-0.676;2023-06-26T05:44:21;0.90;;;0.73;;
21554;SDS011;10938;44.794;-0.676;2023-06-26T05:46:46;1.23;;;1.10;;
21554;SDS011;10938;44.794;-0.676;2023-06-26T05:49:11;1.30;;;0.90;;
21554;SDS011;10938;44.794;-0.676;2023-06-26T05:51:37;2.17;;;0.70;;
21554;SDS011;10938;44.794;-0.676;2023-06-26T05:54:02;0.80;;;0.80;;
21554;SDS011;10938;44.794;-0.676;2023-06-26T05:56:28;1.10;;;0.77;;
21554;SDS011;10938;44.794;-0.676;2023-06-26T05:58:53;0.73;;;0.73;;
21554;SDS011;10938;44.794;-0.676;2023-06-26T06:01:18;1.75;;;0.80;;
21554;SDS011;10938;44.794;-0.676;2023-06-26T06:03:44;2.15;;;0.95;;
21554;SDS011;10938;44.794;-0.676;2023-06-26T06:06:10;3.90;;;1.10;;
21554;SDS011;10938;44.794;-0.676;2023-06-26T06:08:35;1.63;;;0.85;;
21554;SDS011;10938;44.794;-0.676;2023-06-26T06:11:04;0.70;;;0.70;;
21554;SDS011;10938;44.794;-0.676;2023-06-26T06:13:29;1.10;;;1.00;;
21554;SDS011;10938;44.794;-0.676;2023-06-26T06:15:54;0.60;;;0.60;;
21554;SDS011;10938;44.794;-0.676;2023-06-26T06:18:21;0.50;;;0.50;;
21554;SDS011;10938;44.794;-0.676;2023-06-26T06:20:46;0.70;;;0.70;;
21554;SDS011;10938;44.794;-0.676;2023-06-26T06:23:11;0.52;;;0.52;;
21554;SDS011;10938;44.794;-0.676;2023-06-26T06:25:37;0.90;;;0.90;;
21554;SDS011;10938;44.794;-0.676;2023-06-26T06:28:03;0.90;;;0.50;;
21554;SDS011;10938;44.794;-0.676;2023-06-26T06:30:29;0.82;;;0.65;;
21554;SDS011;10938;44.794;-0.676;2023-06-26T06:32:54;0.63;;;0.63;;
21554;SDS011;10938;44.794;-0.676;2023-06-26T06:35:19;0.57;;;0.57;;
21554;SDS011;10938;44.794;-0.676;2023-06-26T06:37:45;0.20;;;0.20;;
21554;SDS011;10938;44.794;-0.676;2023-06-26T06:40:10;0.50;;;0.50;;
21554;SDS011;10938;44.794;-0.676;2023-06-26T06:42:36;0.88;;;0.43;;
21554;SDS011;10938;44.794;-0.676;2023-06-26T06:45:05;0.32;;;0.32;;
21554;SDS011;10938;44.794;-0.676;2023-06-26T06:47:33;0.40;;;0.40;;
21554;SDS011;10938;44.794;-0.676;2023-06-26T06:49:59;1.05;;;0.95;;
21554;SDS011;10938;44.794;-0.676;2023-06-26T06:52:28;0.40;;;0.40;;
21554;SDS011;10938;44.794;-0.676;2023-06-26T06:54:54;0.33;;;0.33;;
21554;SDS011;10938;44.794;-0.676;2023-06-26T06:57:20;0.50;;;0.50;;
21554;SDS011;10938;44.794;-0.676;2023-06-26T06:59:46;1.50;;;0.98;;
21554;SDS011;10938;44.794;-0.676;2023-06-26T07:02:12;0.30;;;0.30;;
21554;SDS011;10938;44.794;-0.676;2023-06-26T07:04:38;0.35;;;0.35;;
21554;SDS011;10938;44.794;-0.676;2023-06-26T07:07:03;0.53;;;0.43;;
21554;SDS011;10938;44.794;-0.676;2023-06-26T07:09:28;1.13;;;0.55;;
21554;SDS011;10938;44.794;-0.676;2023-06-26T07:11:54;1.10;;;0.53;;
21554;SDS011;10938;44.794;-0.676;2023-06-26T07:14:19;1.60;;;0.70;;
21554;SDS011;10938;44.794;-0.676;2023-06-26T07:16:44;1.13;;;0.60;;
21554;SDS011;10938;44.794;-0.676;2023-06-26T07:19:09;0.50;;;0.50;;
21554;SDS011;10938;44.794;-0.676;2023-06-26T07:21:35;0.30;;;0.30;;
21554;SDS011;10938;44.794;-0.676;2023-06-26T07:24:00;0.77;;;0.60;;
21554;SDS011;10938;44.794;-0.676;2023-06-26T07:26:25;1.63;;;0.60;;
21554;SDS011;10938;44.794;-0.676;2023-06-26T07:28:50;0.40;;;0.40;;
21554;SDS011;10938;44.794;-0.676;2023-06-26T07:31:16;0.87;;;0.80;;
21554;SDS011;10938;44.794;-0.676;2023-06-26T07:33:41;1.00;;;0.43;;
21554;SDS011;10938;44.794;-0.676;2023-06-26T07:36:07;0.95;;;0.52;;
21554;SDS011;10938;44.794;-0.676;2023-06-26T07:38:32;2.63;;;0.50;;
21554;SDS011;10938;44.794;-0.676;2023-06-26T07:40:57;0.40;;;0.40;;
21554;SDS011;10938;44.794;-0.676;2023-06-26T07:43:23;0.70;;;0.70;;
21554;SDS011;10938;44.794;-0.676;2023-06-26T07:45:48;0.60;;;0.60;;
21554;SDS011;10938;44.794;-0.676;2023-06-26T07:48:14;0.60;;;0.60;;
21554;SDS011;10938;44.794;-0.676;2023-06-26T07:50:39;0.90;;;0.90;;
21554;SDS011;10938;44.794;-0.676;2023-06-26T07:53:04;0.80;;;0.80;;
21554;SDS011;10938;44.794;-0.676;2023-06-26T07:55:30;0.70;;;0.70;;
21554;SDS011;10938;44.794;-0.676;2023-06-26T07:57:56;0.77;;;0.77;;
21554;SDS011;10938;44.794;-0.676;2023-06-26T08:00:21;0.80;;;0.80;;
21554;SDS011;10938;44.794;-0.676;2023-06-26T08:02:47;0.82;;;0.82;;
21554;SDS011;10938;44.794;-0.676;2023-06-26T08:05:12;0.70;;;0.70;;
21554;SDS011;10938;44.794;-0.676;2023-06-26T08:07:38;0.90;;;0.90;;
21554;SDS011;10938;44.794;-0.676;2023-06-26T08:10:04;0.80;;;0.80;;
21554;SDS011;10938;44.794;-0.676;2023-06-26T08:12:29;2.70;;;1.08;;
21554;SDS011;10938;44.794;-0.676;2023-06-26T08:14:55;0.97;;;0.97;;
21554;SDS011;10938;44.794;-0.676;2023-06-26T08:17:20;0.87;;;0.87;;
21554;SDS011;10938;44.794;-0.676;2023-06-26T08:19:45;1.63;;;1.30;;
21554;SDS011;10938;44.794;-0.676;2023-06-26T08:22:10;1.52;;;1.42;;
21554;SDS011;10938;44.794;-0.676;2023-06-26T08:24:36;1.13;;;1.13;;
21554;SDS011;10938;44.794;-0.676;2023-06-26T08:27:01;0.90;;;0.90;;
21554;SDS011;10938;44.794;-0.676;2023-06-26T08:29:28;0.80;;;0.80;;
21554;SDS011;10938;44.794;-0.676;2023-06-26T08:31:54;0.88;;;0.88;;
21554;SDS011;10938;44.794;-0.676;2023-06-26T08:34:19;1.27;;;1.17;;
21554;SDS011;10938;44.794;-0.676;2023-06-26T08:36:44;0.93;;;0.93;;
21554;SDS011;10938;44.794;-0.676;2023-06-26T08:39:10;0.90;;;0.90;;
21554;SDS011;10938;44.794;-0.676;2023-06-26T08:41:35;0.93;;;0.93;;
21554;SDS011;10938;44.794;-0.676;2023-06-26T08:44:01;1.00;;;1.00;;
21554;SDS011;10938;44.794;-0.676;2023-06-26T08:46:28;1.38;;;1.38;;
21554;SDS011;10938;44.794;-0.676;2023-06-26T08:48:56;1.10;;;1.10;;
21554;SDS011;10938;44.794;-0.676;2023-06-26T08:51:27;0.88;;;0.88;;
21554;SDS011;10938;44.794;-0.676;2023-06-26T08:53:57;1.27;;;1.27;;
21554;SDS011;10938;44.794;-0.676;2023-06-26T08:56:24;1.00;;;1.00;;
21554;SDS011;10938;44.794;-0.676;2023-06-26T08:58:49;1.02;;;1.02;;
21554;SDS011;10938;44.794;-0.676;2023-06-26T09:01:14;1.30;;;1.30;;
21554;SDS011;10938;44.794;-0.676;2023-06-26T09:03:40;1.10;;;1.10;;
21554;SDS011;10938;44.794;-0.676;2023-06-26T09:06:06;1.02;;;1.02;;
21554;SDS011;10938;44.794;-0.676;2023-06-26T09:08:32;1.40;;;1.30;;
21554;SDS011;10938;44.794;-0.676;2023-06-26T09:10:58;1.70;;;1.60;;
21554;SDS011;10938;44.794;-0.676;2023-06-26T09:13:24;1.10;;;1.10;;
21554;SDS011;10938;44.794;-0.676;2023-06-26T09:15:49;1.10;;;1.10;;
21554;SDS011;10938;44.794;-0.676;2023-06-26T09:18:17;1.10;;;1.10;;
21554;SDS011;10938;44.794;-0.676;2023-06-26T09:20:44;1.08;;;1.08;;
21554;SDS011;10938;44.794;-0.676;2023-06-26T09:23:09;1.60;;;1.50;;
21554;SDS011;10938;44.794;-0.676;2023-06-26T09:25:37;1.17;;;1.17;;
21554;SDS011;10938;44.794;-0.676;2023-06-26T09:28:03;1.50;;;1.50;;
21554;SDS011;10938;44.794;-0.676;2023-06-26T09:30:28;0.80;;;0.80;;
21554;SDS011;10938;44.794;-0.676;2023-06-26T09:32:53;0.90;;;0.90;;
21554;SDS011;10938;44.794;-0.676;2023-06-26T09:35:19;1.40;;;1.30;;
21554;SDS011;10938;44.794;-0.676;2023-06-26T09:37:45;1.10;;;1.10;;
21554;SDS011;10938;44.794;-0.676;2023-06-26T09:40:10;0.95;;;0.95;;
21554;SDS011;10938;44.794;-0.676;2023-06-26T09:42:36;0.95;;;0.95;;
21554;SDS011;10938;44.794;-0.676;2023-06-26T09:45:02;1.00;;;1.00;;
21554;SDS011;10938;44.794;-0.676;2023-06-26T09:47:29;1.00;;;1.00;;
21554;SDS011;10938;44.794;-0.676;2023-06-26T09:49:55;1.20;;;1.20;;
21554;SDS011;10938;44.794;-0.676;2023-06-26T09:52:20;0.90;;;0.90;;
21554;SDS011;10938;44.794;-0.676;2023-06-26T09:54:45;2.50;;;1.53;;
21554;SDS011;10938;44.794;-0.676;2023-06-26T09:57:12;0.80;;;0.80;;
21554;SDS011;10938;44.794;-0.676;2023-06-26T09:59:38;0.80;;;0.80;;
21554;SDS011;10938;44.794;-0.676;2023-06-26T10:02:03;0.70;;;0.70;;
21554;SDS011;10938;44.794;-0.676;2023-06-26T10:04:29;0.57;;;0.57;;
21554;SDS011;10938;44.794;-0.676;2023-06-26T10:06:55;0.70;;;0.70;;
21554;SDS011;10938;44.794;-0.676;2023-06-26T10:09:22;0.70;;;0.70;;
21554;SDS011;10938;44.794;-0.676;2023-06-26T10:11:49;0.50;;;0.50;;
21554;SDS011;10938;44.794;-0.676;2023-06-26T10:14:16;2.70;;;0.70;;
21554;SDS011;10938;44.794;-0.676;2023-06-26T10:16:42;0.70;;;0.70;;
21554;SDS011;10938;44.794;-0.676;2023-06-26T10:19:09;0.60;;;0.60;;
21554;SDS011;10938;44.794;-0.676;2023-06-26T10:21:35;0.50;;;0.50;;
21554;SDS011;10938;44.794;-0.676;2023-06-26T10:24:03;0.70;;;0.70;;
21554;SDS011;10938;44.794;-0.676;2023-06-26T10:26:30;0.50;;;0.50;;
21554;SDS011;10938;44.794;-0.676;2023-06-26T10:28:55;0.50;;;0.50;;
21554;SDS011;10938;44.794;-0.676;2023-06-26T10:31:22;0.63;;;0.60;;
21554;SDS011;10938;44.794;-0.676;2023-06-26T10:33:49;0.50;;;0.50;;
21554;SDS011;10938;44.794;-0.676;2023-06-26T10:36:15;0.88;;;0.88;;
21554;SDS011;10938;44.794;-0.676;2023-06-26T10:39:02;0.70;;;0.70;;
21554;SDS011;10938;44.794;-0.676;2023-06-26T10:41:30;1.48;;;0.70;;
21554;SDS011;10938;44.794;-0.676;2023-06-26T10:46:26;1.07;;;0.97;;
21554;SDS011;10938;44.794;-0.676;2023-06-26T10:48:58;4.70;;;0.90;;
21554;SDS011;10938;44.794;-0.676;2023-06-26T10:51:24;0.80;;;0.80;;
21554;SDS011;10938;44.794;-0.676;2023-06-26T10:53:53;0.85;;;0.85;;
21554;SDS011;10938;44.794;-0.676;2023-06-26T10:56:19;0.70;;;0.70;;
21554;SDS011;10938;44.794;-0.676;2023-06-26T10:58:44;0.97;;;0.60;;
21554;SDS011;10938;44.794;-0.676;2023-06-26T11:03:40;0.90;;;0.90;;
21554;SDS011;10938;44.794;-0.676;2023-06-26T11:06:12;1.02;;;0.93;;
21554;SDS011;10938;44.794;-0.676;2023-06-26T11:08:44;0.70;;;0.70;;
21554;SDS011;10938;44.794;-0.676;2023-06-26T11:11:10;0.77;;;0.77;;
21554;SDS011;10938;44.794;-0.676;2023-06-26T11:13:35;0.77;;;0.77;;
21554;SDS011;10938;44.794;-0.676;2023-06-26T11:16:01;0.67;;;0.67;;
21554;SDS011;10938;44.794;-0.676;2023-06-26T11:18:26;1.10;;;1.00;;
21554;SDS011;10938;44.794;-0.676;2023-06-26T11:20:52;1.02;;;0.98;;
21554;SDS011;10938;44.794;-0.676;2023-06-26T11:23:19;2.00;;;1.00;;
21554;SDS011;10938;44.794;-0.676;2023-06-26T11:25:46;0.82;;;0.75;;
21554;SDS011;10938;44.794;-0.676;2023-06-26T11:28:12;1.40;;;1.00;;
21554;SDS011;10938;44.794;-0.676;2023-06-26T11:30:37;1.10;;;1.00;;
21554;SDS011;10938;44.794;-0.676;2023-06-26T11:35:30;0.98;;;0.88;;
21554;SDS011;10938;44.794;-0.676;2023-06-26T11:37:58;1.08;;;0.98;;
21554;SDS011;10938;44.794;-0.676;2023-06-26T11:40:29;0.90;;;0.90;;
21554;SDS011;10938;44.794;-0.676;2023-06-26T11:42:57;1.23;;;0.98;;
21554;SDS011;10938;44.794;-0.676;2023-06-26T11:45:22;1.00;;;0.90;;
21554;SDS011;10938;44.794;-0.676;2023-06-26T11:47:50;0.80;;;0.80;;
21554;SDS011;10938;44.794;-0.676;2023-06-26T11:50:16;0.85;;;0.85;;
21554;SDS011;10938;44.794;-0.676;2023-06-26T11:52:44;1.63;;;1.25;;
21554;SDS011;10938;44.794;-0.676;2023-06-26T11:55:10;0.75;;;0.75;;
21554;SDS011;10938;44.794;-0.676;2023-06-26T11:57:38;0.73;;;0.73;;
21554;SDS011;10938;44.794;-0.676;2023-06-26T12:00:15;0.93;;;0.83;;
21554;SDS011;10938;44.794;-0.676;2023-06-26T12:02:42;0.85;;;0.82;;
21554;SDS011;10938;44.794;-0.676;2023-06-26T12:05:07;1.42;;;1.33;;
21554;SDS011;10938;44.794;-0.676;2023-06-26T12:07:33;0.85;;;0.85;;
21554;SDS011;10938;44.794;-0.676;2023-06-26T12:09:59;1.10;;;1.00;;
21554;SDS011;10938;44.794;-0.676;2023-06-26T12:12:24;0.90;;;0.90;;
21554;SDS011;10938;44.794;-0.676;2023-06-26T12:14:51;1.10;;;1.00;;
21554;SDS011;10938;44.794;-0.676;2023-06-26T12:17:16;1.20;;;1.10;;
21554;SDS011;10938;44.794;-0.676;2023-06-26T12:19:45;1.20;;;1.13;;
21554;SDS011;10938;44.794;-0.676;2023-06-26T12:22:15;1.42;;;1.33;;
21554;SDS011;10938;44.794;-0.676;2023-06-26T12:24:40;1.10;;;1.05;;
21554;SDS011;10938;44.794;-0.676;2023-06-26T12:27:08;1.42;;;1.33;;
21554;SDS011;10938;44.794;-0.676;2023-06-26T12:29:33;1.60;;;1.50;;
21554;SDS011;10938;44.794;-0.676;2023-06-26T12:31:59;1.98;;;1.33;;
21554;SDS011;10938;44.794;-0.676;2023-06-26T12:34:31;0.77;;;0.77;;
21554;SDS011;10938;44.794;-0.676;2023-06-26T12:37:01;1.02;;;0.93;;
21554;SDS011;10938;44.794;-0.676;2023-06-26T12:39:27;1.50;;;1.17;;
21554;SDS011;10938;44.794;-0.676;2023-06-26T12:41:53;1.42;;;1.33;;
21554;SDS011;10938;44.794;-0.676;2023-06-26T12:46:48;1.23;;;1.05;;
21554;SDS011;10938;44.794;-0.676;2023-06-26T12:49:14;1.23;;;1.17;;
21554;SDS011;10938;44.794;-0.676;2023-06-26T12:51:39;1.25;;;0.90;;
21554;SDS011;10938;44.794;-0.676;2023-06-26T12:54:05;2.05;;;1.17;;
21554;SDS011;10938;44.794;-0.676;2023-06-26T12:56:30;0.60;;;0.60;;
21554;SDS011;10938;44.794;-0.676;2023-06-26T12:58:56;1.03;;;0.97;;
21554;SDS011;10938;44.794;-0.676;2023-06-26T13:01:21;5.63;;;1.10;;
21554;SDS011;10938;44.794;-0.676;2023-06-26T13:03:49;1.20;;;1.10;;
21554;SDS011;10938;44.794;-0.676;2023-06-26T13:06:14;1.00;;;1.00;;
21554;SDS011;10938;44.794;-0.676;2023-06-26T13:08:40;1.40;;;1.25;;
21554;SDS011;10938;44.794;-0.676;2023-06-26T13:11:05;1.57;;;1.37;;
21554;SDS011;10938;44.794;-0.676;2023-06-26T13:13:31;2.37;;;1.20;;
21554;SDS011;10938;44.794;-0.676;2023-06-26T13:15:56;0.57;;;0.57;;
21554;SDS011;10938;44.794;-0.676;2023-06-26T13:18:21;1.50;;;1.20;;
21554;SDS011;10938;44.794;-0.676;2023-06-26T13:20:47;1.42;;;1.05;;
21554;SDS011;10938;44.794;-0.676;2023-06-26T13:23:12;1.40;;;1.30;;
21554;SDS011;10938;44.794;-0.676;2023-06-26T13:25:37;1.70;;;1.30;;
21554;SDS011;10938;44.794;-0.676;2023-06-26T13:28:03;2.27;;;1.03;;
21554;SDS011;10938;44.794;-0.676;2023-06-26T13:30:28;1.20;;;1.10;;
21554;SDS011;10938;44.794;-0.676;2023-06-26T13:32:54;1.95;;;1.50;;
21554;SDS011;10938;44.794;-0.676;2023-06-26T13:35:19;2.27;;;1.17;;
21554;SDS011;10938;44.794;-0.676;2023-06-26T13:37:45;0.90;;;0.88;;
21554;SDS011;10938;44.794;-0.676;2023-06-26T13:40:12;1.98;;;1.75;;
21554;SDS011;10938;44.794;-0.676;2023-06-26T13:42:37;1.50;;;1.40;;
21554;SDS011;10938;44.794;-0.676;2023-06-26T13:45:03;1.88;;;1.48;;
21554;SDS011;10938;44.794;-0.676;2023-06-26T13:47:29;3.40;;;1.65;;
21554;SDS011;10938;44.794;-0.676;2023-06-26T13:49:54;1.30;;;1.20;;
21554;SDS011;10938;44.794;-0.676;2023-06-26T13:52:20;1.10;;;1.05;;
21554;SDS011;10938;44.794;-0.676;2023-06-26T13:54:45;3.15;;;1.45;;
21554;SDS011;10938;44.794;-0.676;2023-06-26T13:57:10;3.53;;;2.23;;
21554;SDS011;10938;44.794;-0.676;2023-06-26T13:59:37;1.97;;;1.37;;
21554;SDS011;10938;44.794;-0.676;2023-06-26T14:02:02;1.50;;;1.40;;
21554;SDS011;10938;44.794;-0.676;2023-06-26T14:04:29;3.97;;;1.02;;
21554;SDS011;10938;44.794;-0.676;2023-06-26T14:06:54;1.93;;;1.60;;
21554;SDS011;10938;44.794;-0.676;2023-06-26T14:09:20;1.37;;;1.20;;
21554;SDS011;10938;44.794;-0.676;2023-06-26T14:11:45;1.53;;;1.00;;
21554;SDS011;10938;44.794;-0.676;2023-06-26T14:14:11;1.92;;;1.35;;
21554;SDS011;10938;44.794;-0.676;2023-06-26T14:16:36;1.07;;;0.97;;
21554;SDS011;10938;44.794;-0.676;2023-06-26T14:19:01;2.20;;;1.33;;
21554;SDS011;10938;44.794;-0.676;2023-06-26T14:21:27;1.27;;;1.17;;
21554;SDS011;10938;44.794;-0.676;2023-06-26T14:23:53;1.65;;;1.55;;
21554;SDS011;10938;44.794;-0.676;2023-06-26T14:26:18;1.52;;;1.40;;
21554;SDS011;10938;44.794;-0.676;2023-06-26T14:28:43;2.13;;;1.90;;
21554;SDS011;10938;44.794;-0.676;2023-06-26T14:31:10;2.65;;;1.77;;
21554;SDS011;10938;44.794;-0.676;2023-06-26T14:33:35;1.98;;;1.67;;
21554;SDS011;10938;44.794;-0.676;2023-06-26T14:36:00;1.75;;;1.45;;
21554;SDS011;10938;44.794;-0.676;2023-06-26T14:38:26;2.70;;;1.97;;